sensor_id;sensor_type;location;lat;lon;timestamp;pressure;altitude;pressure_sealevel;temperature;humidity
7297;BME280;40758;54.038;11.684;2023-09-19T00:00:44;100121.09;;;17.78;100.00
7297;BME280;40758;54.038;11.684;2023-09-19T00:03:14;100124.16;;;17.76;100.00
7297;BME280;40758;54.038;11.684;2023-09-19T00:05:42;100125.53;;;17.74;100.00
7297;BME280;40758;54.038;11.684;2023-09-19T00:08:13;100125.47;;;17.84;100.00
7297;BME280;40758;54.038;11.684;2023-09-19T00:10:41;100115.06;;;17.81;100.00
7297;BME280;40758;54.038;11.684;2023-09-19T00:13:09;100111.53;;;17.75;100.00
7297;BME280;40758;54.038;11.684;2023-09-19T00:15:47;100129.03;;;17.85;100.00
7297;BME280;40758;54.038;11.684;2023-09-19T00:18:19;100133.19;;;17.77;100.00
7297;BME280;40758;54.038;11.684;2023-09-19T00:20:47;100132.66;;;17.70;100.00
7297;BME280;40758;54.038;11.684;2023-09-19T00:23:17;100128.00;;;17.75;100.00
7297;BME280;40758;54.038;11.684;2023-09-19T00:25:43;100143.38;;;17.71;100.00
7297;BME280;40758;54.038;11.684;2023-09-19T00:28:12;100137.06;;;17.71;100.00
7297;BME280;40758;54.038;11.684;2023-09-19T00:30:42;100142.03;;;17.64;100.00
7297;BME280;40758;54.038;11.684;2023-09-19T00:33:09;100124.44;;;17.70;100.00
7297;BME280;40758;54.038;11.684;2023-09-19T00:35:38;100145.59;;;17.64;100.00
7297;BME280;40758;54.038;11.684;2023-09-19T00:38:04;100130.56;;;17.51;100.00
7297;BME280;40758;54.038;11.684;2023-09-19T00:40:33;100134.66;;;17.54;100.00
7297;BME280;40758;54.038;11.684;2023-09-19T00:43:00;100134.97;;;17.47;100.00
7297;BME280;40758;54.038;11.684;2023-09-19T00:45:27;100128.19;;;17.35;100.00
7297;BME280;40758;54.038;11.684;2023-09-19T00:47:55;100136.94;;;17.37;100.00
7297;BME280;40758;54.038;11.684;2023-09-19T00:50:25;100140.31;;;17.18;100.00
7297;BME280;40758;54.038;11.684;2023-09-19T00:52:59;100128.28;;;17.04;100.00
7297;BME280;40758;54.038;11.684;2023-09-19T00:55:26;100136.25;;;17.06;100.00
7297;BME280;40758;54.038;11.684;2023-09-19T00:57:56;100126.91;;;17.01;100.00
7297;BME280;40758;54.038;11.684;2023-09-19T01:00:24;100133.22;;;17.07;100.00
7297;BME280;40758;54.038;11.684;2023-09-19T01:02:51;100149.16;;;16.90;100.00
7297;BME280;40758;54.038;11.684;2023-09-19T01:05:18;100144.22;;;16.66;100.00
7297;BME280;40758;54.038;11.684;2023-09-19T01:07:45;100148.63;;;16.62;100.00
7297;BME280;40758;54.038;11.684;2023-09-19T01:10:17;100143.13;;;16.57;100.00
7297;BME280;40758;54.038;11.684;2023-09-19T01:21:27;100146.72;;;16.83;100.00
7297;BME280;40758;54.038;11.684;2023-09-19T01:30:04;100144.53;;;16.60;100.00
7297;BME280;40758;54.038;11.684;2023-09-19T01:32:34;100140.69;;;16.35;100.00
7297;BME280;40758;54.038;11.684;2023-09-19T01:35:01;100161.25;;;16.53;100.00
7297;BME280;40758;54.038;11.684;2023-09-19T01:37:30;100151.94;;;16.44;100.00
7297;BME280;40758;54.038;11.684;2023-09-19T01:40:04;100166.16;;;16.46;100.00
7297;BME280;40758;54.038;11.684;2023-09-19T01:42:40;100161.25;;;16.38;100.00
7297;BME280;40758;54.038;11.684;2023-09-19T01:48:07;100156.88;;;16.37;100.00
7297;BME280;40758;54.038;11.684;2023-09-19T01:50:44;100156.59;;;16.38;100.00
7297;BME280;40758;54.038;11.684;2023-09-19T01:53:36;100163.69;;;16.49;100.00
7297;BME280;40758;54.038;11.684;2023-09-19T01:56:08;100156.28;;;16.40;100.00
7297;BME280;40758;54.038;11.684;2023-09-19T01:58:45;100157.97;;;16.41;100.00
7297;BME280;40758;54.038;11.684;2023-09-19T02:01:22;100160.13;;;16.39;100.00
7297;BME280;40758;54.038;11.684;2023-09-19T02:03:50;100159.03;;;16.35;100.00
7297;BME280;40758;54.038;11.684;2023-09-19T02:06:19;100166.72;;;16.33;100.00
7297;BME280;40758;54.038;11.684;2023-09-19T02:08:48;100176.84;;;16.32;100.00
7297;BME280;40758;54.038;11.684;2023-09-19T02:11:15;100175.50;;;16.30;100.00
7297;BME280;40758;54.038;11.684;2023-09-19T02:13:42;100175.50;;;16.30;100.00
7297;BME280;40758;54.038;11.684;2023-09-19T02:16:09;100177.38;;;16.29;100.00
7297;BME280;40758;54.038;11.684;2023-09-19T02:18:39;100176.31;;;16.25;100.00
7297;BME280;40758;54.038;11.684;2023-09-19T02:21:06;100179.31;;;16.29;100.00
7297;BME280;40758;54.038;11.684;2023-09-19T02:23:33;100172.19;;;16.22;100.00
7297;BME280;40758;54.038;11.684;2023-09-19T02:25:59;100184.25;;;16.27;100.00
7297;BME280;40758;54.038;11.684;2023-09-19T02:28:30;100178.50;;;16.13;100.00
7297;BME280;40758;54.038;11.684;2023-09-19T02:30:59;100185.56;;;16.04;100.00
7297;BME280;40758;54.038;11.684;2023-09-19T02:33:25;100182.28;;;15.96;100.00
7297;BME280;40758;54.038;11.684;2023-09-19T02:35:56;100192.41;;;15.91;100.00
7297;BME280;40758;54.038;11.684;2023-09-19T02:38:27;100188.81;;;15.85;100.00
7297;BME280;40758;54.038;11.684;2023-09-19T02:40:55;100191.00;;;15.78;100.00
7297;BME280;40758;54.038;11.684;2023-09-19T02:43:25;100188.53;;;15.72;100.00
7297;BME280;40758;54.038;11.684;2023-09-19T02:45:52;100174.19;;;15.59;100.00
7297;BME280;40758;54.038;11.684;2023-09-19T02:48:20;100183.53;;;15.63;100.00
7297;BME280;40758;54.038;11.684;2023-09-19T02:50:50;100200.22;;;15.62;100.00
7297;BME280;40758;54.038;11.684;2023-09-19T02:53:17;100190.03;;;15.52;100.00
7297;BME280;40758;54.038;11.684;2023-09-19T02:55:44;100204.25;;;15.44;100.00
7297;BME280;40758;54.038;11.684;2023-09-19T02:58:10;100192.72;;;15.42;100.00
7297;BME280;40758;54.038;11.684;2023-09-19T03:00:39;100207.19;;;15.32;100.00
7297;BME280;40758;54.038;11.684;2023-09-19T03:03:08;100213.41;;;15.23;100.00
7297;BME280;40758;54.038;11.684;2023-09-19T03:05:35;100221.91;;;15.21;100.00
7297;BME280;40758;54.038;11.684;2023-09-19T03:08:02;100208.19;;;15.16;100.00
7297;BME280;40758;54.038;11.684;2023-09-19T03:10:32;100214.78;;;15.20;100.00
7297;BME280;40758;54.038;11.684;2023-09-19T03:12:59;100224.94;;;15.30;100.00
7297;BME280;40758;54.038;11.684;2023-09-19T03:15:26;100222.78;;;15.32;100.00
7297;BME280;40758;54.038;11.684;2023-09-19T03:17:53;100222.75;;;15.27;100.00
7297;BME280;40758;54.038;11.684;2023-09-19T03:20:20;100232.34;;;15.34;100.00
7297;BME280;40758;54.038;11.684;2023-09-19T03:22:48;100218.38;;;15.26;100.00
7297;BME280;40758;54.038;11.684;2023-09-19T03:25:15;100223.78;;;15.15;100.00
7297;BME280;40758;54.038;11.684;2023-09-19T03:27:44;100229.59;;;15.29;100.00
7297;BME280;40758;54.038;11.684;2023-09-19T03:30:11;100234.81;;;15.31;100.00
7297;BME280;40758;54.038;11.684;2023-09-19T03:32:44;100228.22;;;15.27;100.00
7297;BME280;40758;54.038;11.684;2023-09-19T03:35:12;100230.47;;;15.40;100.00
7297;BME280;40758;54.038;11.684;2023-09-19T03:37:41;100223.59;;;15.32;100.00
7297;BME280;40758;54.038;11.684;2023-09-19T03:40:09;100214.50;;;15.22;100.00
7297;BME280;40758;54.038;11.684;2023-09-19T03:42:41;100223.84;;;15.26;100.00
7297;BME280;40758;54.038;11.684;2023-09-19T03:45:10;100231.94;;;15.10;100.00
7297;BME280;40758;54.038;11.684;2023-09-19T03:47:46;100222.09;;;15.09;100.00
7297;BME280;40758;54.038;11.684;2023-09-19T03:50:16;100209.91;;;14.85;100.00
7297;BME280;40758;54.038;11.684;2023-09-19T03:52:44;100232.38;;;14.92;100.00
7297;BME280;40758;54.038;11.684;2023-09-19T03:55:11;100232.66;;;14.96;100.00
7297;BME280;40758;54.038;11.684;2023-09-19T03:57:39;100232.84;;;14.84;100.00
7297;BME280;40758;54.038;11.684;2023-09-19T04:00:06;100228.97;;;14.75;100.00
7297;BME280;40758;54.038;11.684;2023-09-19T04:02:45;100230.28;;;14.67;100.00
7297;BME280;40758;54.038;11.684;2023-09-19T04:05:13;100227.72;;;14.60;100.00
7297;BME280;40758;54.038;11.684;2023-09-19T04:07:39;100243.53;;;14.53;100.00
7297;BME280;40758;54.038;11.684;2023-09-19T04:10:06;100246.22;;;14.48;100.00
7297;BME280;40758;54.038;11.684;2023-09-19T04:12:35;100243.38;;;14.43;100.00
7297;BME280;40758;54.038;11.684;2023-09-19T04:15:02;100251.34;;;14.45;100.00
7297;BME280;40758;54.038;11.684;2023-09-19T04:17:31;100250.41;;;14.34;100.00
7297;BME280;40758;54.038;11.684;2023-09-19T04:20:01;100249.28;;;14.30;100.00
7297;BME280;40758;54.038;11.684;2023-09-19T04:22:28;100257.25;;;14.36;100.00
7297;BME280;40758;54.038;11.684;2023-09-19T04:24:56;100235.63;;;14.30;100.00
7297;BME280;40758;54.038;11.684;2023-09-19T04:27:23;100248.19;;;14.31;100.00
7297;BME280;40758;54.038;11.684;2023-09-19T04:29:49;100237.84;;;14.33;100.00
7297;BME280;40758;54.038;11.684;2023-09-19T04:32:17;100237.84;;;14.33;100.00
7297;BME280;40758;54.038;11.684;2023-09-19T04:34:44;100245.72;;;14.29;100.00
7297;BME280;40758;54.038;11.684;2023-09-19T04:37:10;100244.13;;;14.33;100.00
7297;BME280;40758;54.038;11.684;2023-09-19T04:39:37;100255.28;;;14.27;100.00
7297;BME280;40758;54.038;11.684;2023-09-19T04:42:05;100258.03;;;14.32;100.00
7297;BME280;40758;54.038;11.684;2023-09-19T04:44:32;100256.66;;;14.29;100.00
7297;BME280;40758;54.038;11.684;2023-09-19T04:46:59;100253.16;;;14.34;100.00
7297;BME280;40758;54.038;11.684;2023-09-19T04:49:26;100258.50;;;14.24;100.00
7297;BME280;40758;54.038;11.684;2023-09-19T04:51:53;100261.44;;;14.17;100.00
7297;BME280;40758;54.038;11.684;2023-09-19T04:54:22;100254.22;;;14.06;100.00
7297;BME280;40758;54.038;11.684;2023-09-19T04:56:49;100271.22;;;14.13;100.00
7297;BME280;40758;54.038;11.684;2023-09-19T04:59:16;100266.50;;;14.08;100.00
7297;BME280;40758;54.038;11.684;2023-09-19T05:01:42;100276.69;;;14.13;100.00
7297;BME280;40758;54.038;11.684;2023-09-19T05:04:09;100277.50;;;14.14;100.00
7297;BME280;40758;54.038;11.684;2023-09-19T05:06:36;100282.72;;;14.15;100.00
7297;BME280;40758;54.038;11.684;2023-09-19T05:09:03;100281.56;;;14.11;100.00
7297;BME280;40758;54.038;11.684;2023-09-19T05:11:35;100276.94;;;14.11;100.00
7297;BME280;40758;54.038;11.684;2023-09-19T05:14:03;100293.50;;;14.27;100.00
7297;BME280;40758;54.038;11.684;2023-09-19T05:16:30;100292.16;;;14.29;100.00
7297;BME280;40758;54.038;11.684;2023-09-19T05:19:01;100318.56;;;14.46;100.00
7297;BME280;40758;54.038;11.684;2023-09-19T05:21:28;100304.16;;;14.50;100.00
7297;BME280;40758;54.038;11.684;2023-09-19T05:23:56;100306.97;;;14.60;100.00
7297;BME280;40758;54.038;11.684;2023-09-19T05:26:24;100313.56;;;14.64;100.00
7297;BME280;40758;54.038;11.684;2023-09-19T05:28:51;100298.81;;;14.66;100.00
7297;BME280;40758;54.038;11.684;2023-09-19T05:31:19;100303.00;;;14.73;100.00
7297;BME280;40758;54.038;11.684;2023-09-19T05:33:47;100311.56;;;14.82;100.00
7297;BME280;40758;54.038;11.684;2023-09-19T05:36:14;100314.34;;;14.87;100.00
7297;BME280;40758;54.038;11.684;2023-09-19T05:38:43;100321.81;;;14.97;100.00
7297;BME280;40758;54.038;11.684;2023-09-19T05:41:11;100308.31;;;14.90;100.00
7297;BME280;40758;54.038;11.684;2023-09-19T05:43:40;100307.31;;;15.01;100.00
7297;BME280;40758;54.038;11.684;2023-09-19T05:46:08;100305.13;;;14.98;100.00
7297;BME280;40758;54.038;11.684;2023-09-19T05:48:35;100330.91;;;15.07;100.00
7297;BME280;40758;54.038;11.684;2023-09-19T05:51:02;100344.94;;;15.16;100.00
7297;BME280;40758;54.038;11.684;2023-09-19T05:53:29;100343.22;;;15.10;100.00
7297;BME280;40758;54.038;11.684;2023-09-19T05:55:56;100342.38;;;15.04;100.00
7297;BME280;40758;54.038;11.684;2023-09-19T05:58:23;100349.69;;;14.99;100.00
7297;BME280;40758;54.038;11.684;2023-09-19T06:00:50;100360.81;;;14.87;100.00
7297;BME280;40758;54.038;11.684;2023-09-19T06:03:16;100357.63;;;14.46;100.00
7297;BME280;40758;54.038;11.684;2023-09-19T06:05:44;100358.59;;;14.13;100.00
7297;BME280;40758;54.038;11.684;2023-09-19T06:08:12;100368.44;;;13.92;100.00
7297;BME280;40758;54.038;11.684;2023-09-19T06:10:39;100384.13;;;13.85;100.00
7297;BME280;40758;54.038;11.684;2023-09-19T06:13:06;100377.47;;;13.76;100.00
7297;BME280;40758;54.038;11.684;2023-09-19T06:15:33;100380.22;;;13.76;100.00
7297;BME280;40758;54.038;11.684;2023-09-19T06:18:03;100369.22;;;13.71;100.00
7297;BME280;40758;54.038;11.684;2023-09-19T06:20:32;100380.22;;;13.76;100.00
7297;BME280;40758;54.038;11.684;2023-09-19T06:23:00;100374.09;;;13.69;100.00
7297;BME280;40758;54.038;11.684;2023-09-19T06:25:29;100373.41;;;13.78;100.00
7297;BME280;40758;54.038;11.684;2023-09-19T06:27:56;100350.44;;;13.74;100.00
7297;BME280;40758;54.038;11.684;2023-09-19T06:30:24;100371.72;;;13.94;100.00
7297;BME280;40758;54.038;11.684;2023-09-19T06:32:56;100378.41;;;14.03;100.00
7297;BME280;40758;54.038;11.684;2023-09-19T06:35:26;100380.53;;;14.01;100.00
7297;BME280;40758;54.038;11.684;2023-09-19T06:37:56;100381.25;;;13.92;100.00
7297;BME280;40758;54.038;11.684;2023-09-19T06:40:25;100368.47;;;13.75;100.00
7297;BME280;40758;54.038;11.684;2023-09-19T06:42:52;100401.19;;;13.92;100.00
7297;BME280;40758;54.038;11.684;2023-09-19T06:45:20;100409.06;;;14.10;100.00
7297;BME280;40758;54.038;11.684;2023-09-19T06:47:50;100422.53;;;14.17;100.00
7297;BME280;40758;54.038;11.684;2023-09-19T06:50:19;100422.28;;;14.41;100.00
7297;BME280;40758;54.038;11.684;2023-09-19T06:52:53;100420.88;;;14.82;100.00
7297;BME280;40758;54.038;11.684;2023-09-19T06:55:22;100422.09;;;15.23;100.00
7297;BME280;40758;54.038;11.684;2023-09-19T06:57:52;100412.00;;;15.56;100.00
7297;BME280;40758;54.038;11.684;2023-09-19T07:00:21;100413.63;;;15.89;100.00
7297;BME280;40758;54.038;11.684;2023-09-19T07:02:55;100406.28;;;16.05;100.00
7297;BME280;40758;54.038;11.684;2023-09-19T07:05:23;100435.53;;;15.89;100.00
7297;BME280;40758;54.038;11.684;2023-09-19T07:07:49;100407.25;;;16.26;100.00
7297;BME280;40758;54.038;11.684;2023-09-19T07:10:16;100423.56;;;16.05;100.00
7297;BME280;40758;54.038;11.684;2023-09-19T07:12:45;100436.38;;;16.47;100.00
7297;BME280;40758;54.038;11.684;2023-09-19T07:15:12;100426.00;;;16.54;100.00
7297;BME280;40758;54.038;11.684;2023-09-19T07:17:39;100429.41;;;16.19;100.00
7297;BME280;40758;54.038;11.684;2023-09-19T07:20:06;100429.91;;;16.16;100.00
7297;BME280;40758;54.038;11.684;2023-09-19T07:22:34;100433.22;;;16.23;100.00
7297;BME280;40758;54.038;11.684;2023-09-19T07:25:01;100433.97;;;16.03;100.00
7297;BME280;40758;54.038;11.684;2023-09-19T07:27:28;100434.88;;;15.77;100.00
7297;BME280;40758;54.038;11.684;2023-09-19T07:29:55;100438.75;;;15.81;100.00
7297;BME280;40758;54.038;11.684;2023-09-19T07:32:22;100404.06;;;15.54;100.00
7297;BME280;40758;54.038;11.684;2023-09-19T07:34:49;100442.69;;;16.00;100.00
7297;BME280;40758;54.038;11.684;2023-09-19T07:37:15;100451.06;;;15.78;100.00
7297;BME280;40758;54.038;11.684;2023-09-19T07:39:43;100430.50;;;15.76;100.00
7297;BME280;40758;54.038;11.684;2023-09-19T07:42:12;100452.00;;;15.99;100.00
7297;BME280;40758;54.038;11.684;2023-09-19T07:44:44;100459.72;;;16.07;100.00
7297;BME280;40758;54.038;11.684;2023-09-19T07:47:14;100456.59;;;16.36;100.00
7297;BME280;40758;54.038;11.684;2023-09-19T07:49:41;100441.00;;;15.89;100.00
7297;BME280;40758;54.038;11.684;2023-09-19T07:52:09;100461.97;;;16.15;100.00
7297;BME280;40758;54.038;11.684;2023-09-19T07:54:36;100446.72;;;15.87;100.00
7297;BME280;40758;54.038;11.684;2023-09-19T07:57:05;100450.69;;;16.07;100.00
7297;BME280;40758;54.038;11.684;2023-09-19T07:59:32;100460.81;;;16.06;100.00
7297;BME280;40758;54.038;11.684;2023-09-19T08:01:59;100447.34;;;15.94;100.00
7297;BME280;40758;54.038;11.684;2023-09-19T08:04:30;100461.19;;;15.78;100.00
7297;BME280;40758;54.038;11.684;2023-09-19T08:06:59;100458.81;;;15.91;100.00
7297;BME280;40758;54.038;11.684;2023-09-19T08:09:26;100460.84;;;16.11;100.00
7297;BME280;40758;54.038;11.684;2023-09-19T08:11:54;100419.69;;;15.96;100.00
7297;BME280;40758;54.038;11.684;2023-09-19T08:14:21;100465.63;;;16.31;100.00
7297;BME280;40758;54.038;11.684;2023-09-19T08:16:49;100457.88;;;16.70;100.00
7297;BME280;40758;54.038;11.684;2023-09-19T08:19:16;100453.75;;;16.73;100.00
7297;BME280;40758;54.038;11.684;2023-09-19T08:21:43;100461.66;;;16.59;100.00
7297;BME280;40758;54.038;11.684;2023-09-19T08:24:13;100464.06;;;16.50;100.00
7297;BME280;40758;54.038;11.684;2023-09-19T08:26:41;100477.91;;;16.71;100.00
7297;BME280;40758;54.038;11.684;2023-09-19T08:29:11;100460.63;;;16.70;100.00
7297;BME280;40758;54.038;11.684;2023-09-19T08:31:39;100464.66;;;16.63;100.00
7297;BME280;40758;54.038;11.684;2023-09-19T08:34:06;100465.50;;;16.68;100.00
7297;BME280;40758;54.038;11.684;2023-09-19T08:36:33;100473.47;;;16.70;100.00
7297;BME280;40758;54.038;11.684;2023-09-19T08:39:00;100481.94;;;16.68;100.00
7297;BME280;40758;54.038;11.684;2023-09-19T08:41:27;100473.16;;;16.61;100.00
7297;BME280;40758;54.038;11.684;2023-09-19T08:43:54;100470.09;;;16.47;100.00
7297;BME280;40758;54.038;11.684;2023-09-19T08:46:25;100471.94;;;16.37;100.00
7297;BME280;40758;54.038;11.684;2023-09-19T08:49:04;100476.16;;;16.60;100.00
7297;BME280;40758;54.038;11.684;2023-09-19T08:51:42;100492.34;;;16.61;100.00
7297;BME280;40758;54.038;11.684;2023-09-19T08:56:46;100485.41;;;16.43;100.00
7297;BME280;40758;54.038;11.684;2023-09-19T08:59:14;100473.56;;;16.33;100.00
7297;BME280;40758;54.038;11.684;2023-09-19T09:01:42;100484.00;;;16.36;100.00
7297;BME280;40758;54.038;11.684;2023-09-19T09:04:09;100482.47;;;16.60;100.00
7297;BME280;40758;54.038;11.684;2023-09-19T09:06:40;100481.38;;;16.61;100.00
7297;BME280;40758;54.038;11.684;2023-09-19T09:09:10;100454.78;;;16.62;100.00
7297;BME280;40758;54.038;11.684;2023-09-19T09:11:38;100475.47;;;16.90;100.00
7297;BME280;40758;54.038;11.684;2023-09-19T09:14:07;100465.56;;;16.73;100.00
7297;BME280;40758;54.038;11.684;2023-09-19T09:16:34;100470.97;;;16.68;100.00
7297;BME280;40758;54.038;11.684;2023-09-19T09:19:01;100470.41;;;16.61;100.00
7297;BME280;40758;54.038;11.684;2023-09-19T09:21:28;100484.41;;;16.60;100.00
7297;BME280;40758;54.038;11.684;2023-09-19T09:23:55;100478.97;;;16.70;100.00
7297;BME280;40758;54.038;11.684;2023-09-19T09:29:06;100471.97;;;16.99;100.00
7297;BME280;40758;54.038;11.684;2023-09-19T09:31:33;100464.53;;;16.95;100.00
7297;BME280;40758;54.038;11.684;2023-09-19T09:34:00;100472.19;;;16.88;100.00
7297;BME280;40758;54.038;11.684;2023-09-19T09:36:39;100454.81;;;16.67;100.00
7297;BME280;40758;54.038;11.684;2023-09-19T09:39:09;100489.16;;;16.80;100.00
7297;BME280;40758;54.038;11.684;2023-09-19T09:41:51;100487.75;;;16.72;100.00
7297;BME280;40758;54.038;11.684;2023-09-19T09:44:23;100467.09;;;16.54;100.00
7297;BME280;40758;54.038;11.684;2023-09-19T09:46:50;100480.22;;;16.47;100.00
7297;BME280;40758;54.038;11.684;2023-09-19T09:49:25;100482.44;;;16.55;100.00
7297;BME280;40758;54.038;11.684;2023-09-19T09:52:05;100451.75;;;16.53;100.00
7297;BME280;40758;54.038;11.684;2023-09-19T09:55:02;100492.81;;;16.43;100.00
7297;BME280;40758;54.038;11.684;2023-09-19T09:57:34;100509.28;;;16.48;100.00
7297;BME280;40758;54.038;11.684;2023-09-19T10:00:02;100502.34;;;16.30;100.00
7297;BME280;40758;54.038;11.684;2023-09-19T10:02:43;100499.06;;;16.38;100.00
7297;BME280;40758;54.038;11.684;2023-09-19T10:05:18;100502.78;;;16.64;100.00
7297;BME280;40758;54.038;11.684;2023-09-19T10:07:55;100507.84;;;16.93;100.00
7297;BME280;40758;54.038;11.684;2023-09-19T10:10:36;100497.41;;;16.85;100.00
7297;BME280;40758;54.038;11.684;2023-09-19T10:13:08;100507.59;;;17.05;100.00
7297;BME280;40758;54.038;11.684;2023-09-19T10:15:49;100517.28;;;17.22;100.00
7297;BME280;40758;54.038;11.684;2023-09-19T10:18:42;100509.03;;;17.33;100.00
7297;BME280;40758;54.038;11.684;2023-09-19T10:21:10;100486.50;;;17.15;100.00
7297;BME280;40758;54.038;11.684;2023-09-19T10:23:38;100509.53;;;16.99;100.00
7297;BME280;40758;54.038;11.684;2023-09-19T10:26:10;100505.97;;;17.03;100.00
7297;BME280;40758;54.038;11.684;2023-09-19T10:28:37;100515.56;;;17.01;100.00
7297;BME280;40758;54.038;11.684;2023-09-19T10:31:05;100520.84;;;17.23;100.00
7297;BME280;40758;54.038;11.684;2023-09-19T10:33:36;100514.00;;;17.31;100.00
7297;BME280;40758;54.038;11.684;2023-09-19T10:36:05;100512.88;;;17.32;100.00
7297;BME280;40758;54.038;11.684;2023-09-19T10:38:33;100507.38;;;17.21;100.00
7297;BME280;40758;54.038;11.684;2023-09-19T10:41:02;100500.25;;;17.20;100.00
7297;BME280;40758;54.038;11.684;2023-09-19T10:43:31;100512.91;;;17.42;100.00
7297;BME280;40758;54.038;11.684;2023-09-19T10:46:05;100495.09;;;17.85;100.00
7297;BME280;40758;54.038;11.684;2023-09-19T10:48:34;100507.72;;;17.91;100.00
7297;BME280;40758;54.038;11.684;2023-09-19T10:51:11;100512.97;;;17.72;100.00
7297;BME280;40758;54.038;11.684;2023-09-19T10:56:20;100505.28;;;17.90;100.00
7297;BME280;40758;54.038;11.684;2023-09-19T10:58:50;100512.41;;;17.70;100.00
7297;BME280;40758;54.038;11.684;2023-09-19T11:01:18;100510.22;;;17.93;100.00
7297;BME280;40758;54.038;11.684;2023-09-19T11:03:45;100511.81;;;18.19;100.00
7297;BME280;40758;54.038;11.684;2023-09-19T11:06:14;100508.97;;;18.75;100.00
7297;BME280;40758;54.038;11.684;2023-09-19T11:09:03;100515.09;;;18.37;100.00
7297;BME280;40758;54.038;11.684;2023-09-19T11:11:50;100499.66;;;18.51;100.00
7297;BME280;40758;54.038;11.684;2023-09-19T11:30:36;100489.34;;;19.36;100.00
7297;BME280;40758;54.038;11.684;2023-09-19T11:33:29;100496.88;;;19.65;100.00
7297;BME280;40758;54.038;11.684;2023-09-19T11:36:16;100522.31;;;19.47;100.00
7297;BME280;40758;54.038;11.684;2023-09-19T11:43:50;100511.38;;;19.36;100.00
7297;BME280;40758;54.038;11.684;2023-09-19T11:46:23;100504.56;;;19.68;100.00
7297;BME280;40758;54.038;11.684;2023-09-19T11:48:50;100503.16;;;19.71;100.00
7297;BME280;40758;54.038;11.684;2023-09-19T11:51:21;100478.19;;;18.63;100.00
7297;BME280;40758;54.038;11.684;2023-09-19T11:53:51;100512.19;;;18.87;100.00
7297;BME280;40758;54.038;11.684;2023-09-19T11:56:20;100490.09;;;19.47;100.00
7297;BME280;40758;54.038;11.684;2023-09-19T11:58:52;100473.81;;;19.11;100.00
7297;BME280;40758;54.038;11.684;2023-09-19T12:01:23;100502.28;;;18.97;100.00
7297;BME280;40758;54.038;11.684;2023-09-19T12:03:53;100474.34;;;18.59;100.00
7297;BME280;40758;54.038;11.684;2023-09-19T12:06:21;100501.03;;;18.53;100.00
7297;BME280;40758;54.038;11.684;2023-09-19T12:08:49;100494.41;;;18.70;100.00
7297;BME280;40758;54.038;11.684;2023-09-19T12:11:17;100500.06;;;18.94;100.00
7297;BME280;40758;54.038;11.684;2023-09-19T12:13:45;100519.19;;;19.19;100.00
7297;BME280;40758;54.038;11.684;2023-09-19T12:16:19;100512.16;;;18.98;100.00
7297;BME280;40758;54.038;11.684;2023-09-19T12:18:50;100523.81;;;18.74;100.00
7297;BME280;40758;54.038;11.684;2023-09-19T12:21:23;100516.16;;;18.51;100.00
7297;BME280;40758;54.038;11.684;2023-09-19T12:23:58;100510.16;;;18.33;100.00
7297;BME280;40758;54.038;11.684;2023-09-19T12:26:26;100514.56;;;18.24;100.00
7297;BME280;40758;54.038;11.684;2023-09-19T12:28:55;100518.13;;;18.30;100.00
7297;BME280;40758;54.038;11.684;2023-09-19T12:31:22;100516.22;;;18.25;100.00
7297;BME280;40758;54.038;11.684;2023-09-19T12:33:58;100513.22;;;18.06;100.00
7297;BME280;40758;54.038;11.684;2023-09-19T12:36:28;100504.44;;;17.99;100.00
7297;BME280;40758;54.038;11.684;2023-09-19T12:39:00;100499.47;;;18.17;100.00
7297;BME280;40758;54.038;11.684;2023-09-19T12:41:35;100488.13;;;18.49;100.00
7297;BME280;40758;54.038;11.684;2023-09-19T12:44:02;100507.34;;;18.54;100.00
7297;BME280;40758;54.038;11.684;2023-09-19T12:46:29;100479.31;;;18.52;100.00
7297;BME280;40758;54.038;11.684;2023-09-19T12:49:18;100493.47;;;18.90;100.00
7297;BME280;40758;54.038;11.684;2023-09-19T12:51:46;100483.00;;;18.97;100.00
7297;BME280;40758;54.038;11.684;2023-09-19T12:54:14;100492.56;;;19.09;100.00
7297;BME280;40758;54.038;11.684;2023-09-19T12:56:44;100471.38;;;19.10;100.00
7297;BME280;40758;54.038;11.684;2023-09-19T12:59:14;100479.09;;;19.08;100.00
7297;BME280;40758;54.038;11.684;2023-09-19T13:01:42;100489.88;;;18.94;100.00
7297;BME280;40758;54.038;11.684;2023-09-19T13:04:21;100480.38;;;18.61;100.00
7297;BME280;40758;54.038;11.684;2023-09-19T13:06:56;100488.09;;;18.54;100.00
7297;BME280;40758;54.038;11.684;2023-09-19T13:09:28;100481.59;;;18.29;100.00
7297;BME280;40758;54.038;11.684;2023-09-19T13:12:01;100470.09;;;18.07;100.00
7297;BME280;40758;54.038;11.684;2023-09-19T13:14:30;100486.56;;;18.17;100.00
7297;BME280;40758;54.038;11.684;2023-09-19T13:17:08;100485.34;;;18.54;100.00
7297;BME280;40758;54.038;11.684;2023-09-19T13:19:50;100489.84;;;19.04;100.00
7297;BME280;40758;54.038;11.684;2023-09-19T13:22:41;100495.63;;;19.42;100.00
7297;BME280;40758;54.038;11.684;2023-09-19T13:25:14;100481.44;;;18.80;100.00
7297;BME280;40758;54.038;11.684;2023-09-19T13:27:46;100480.66;;;18.59;100.00
7297;BME280;40758;54.038;11.684;2023-09-19T13:30:15;100496.03;;;18.71;100.00
7297;BME280;40758;54.038;11.684;2023-09-19T13:32:41;100491.94;;;18.68;100.00
7297;BME280;40758;54.038;11.684;2023-09-19T13:35:11;100471.06;;;18.52;100.00
7297;BME280;40758;54.038;11.684;2023-09-19T13:37:39;100495.22;;;18.70;100.00
7297;BME280;40758;54.038;11.684;2023-09-19T13:40:11;100495.34;;;19.04;100.00